sensor_id;sensor_type;location;lat;lon;timestamp;temperature;humidity
5899;DHT22;2975;50.956;6.962;2023-11-22T00:00:54;6.70;99.90
5899;DHT22;2975;50.956;6.962;2023-11-22T00:03:20;6.60;99.90
5899;DHT22;2975;50.956;6.962;2023-11-22T00:05:46;6.60;99.90
5899;DHT22;2975;50.956;6.962;2023-11-22T00:08:12;6.50;99.90
5899;DHT22;2975;50.956;6.962;2023-11-22T00:10:38;6.60;99.90
5899;DHT22;2975;50.956;6.962;2023-11-22T00:13:03;6.50;99.90
5899;DHT22;2975;50.956;6.962;2023-11-22T00:15:29;6.50;99.90
5899;DHT22;2975;50.956;6.962;2023-11-22T00:17:54;6.40;99.90
5899;DHT22;2975;50.956;6.962;2023-11-22T00:20:20;6.50;99.90
5899;DHT22;2975;50.956;6.962;2023-11-22T00:22:46;6.40;99.90
5899;DHT22;2975;50.956;6.962;2023-11-22T00:25:12;6.50;99.90
5899;DHT22;2975;50.956;6.962;2023-11-22T00:27:38;6.50;99.90
5899;DHT22;2975;50.956;6.962;2023-11-22T00:30:05;6.40;99.90
5899;DHT22;2975;50.956;6.962;2023-11-22T00:32:30;6.30;99.90
5899;DHT22;2975;50.956;6.962;2023-11-22T00:34:56;6.40;99.90
5899;DHT22;2975;50.956;6.962;2023-11-22T00:37:21;6.30;99.90
5899;DHT22;2975;50.956;6.962;2023-11-22T00:39:47;6.40;99.90
5899;DHT22;2975;50.956;6.962;2023-11-22T00:42:12;6.40;99.90
5899;DHT22;2975;50.956;6.962;2023-11-22T00:44:38;6.40;99.90
5899;DHT22;2975;50.956;6.962;2023-11-22T00:47:04;6.40;99.90
5899;DHT22;2975;50.956;6.962;2023-11-22T00:49:30;6.30;99.90
5899;DHT22;2975;50.956;6.962;2023-11-22T00:51:56;6.40;99.90
5899;DHT22;2975;50.956;6.962;2023-11-22T00:54:22;6.40;99.90
5899;DHT22;2975;50.956;6.962;2023-11-22T00:56:47;6.40;99.90
5899;DHT22;2975;50.956;6.962;2023-11-22T00:59:13;6.50;99.90
5899;DHT22;2975;50.956;6.962;2023-11-22T01:01:40;6.40;99.90
5899;DHT22;2975;50.956;6.962;2023-11-22T01:04:06;6.40;99.90
5899;DHT22;2975;50.956;6.962;2023-11-22T01:06:32;6.40;99.90
5899;DHT22;2975;50.956;6.962;2023-11-22T01:08:58;6.30;99.90
5899;DHT22;2975;50.956;6.962;2023-11-22T01:11:24;6.30;99.90
5899;DHT22;2975;50.956;6.962;2023-11-22T01:13:50;6.30;99.90
5899;DHT22;2975;50.956;6.962;2023-11-22T01:16:15;6.40;99.90
5899;DHT22;2975;50.956;6.962;2023-11-22T01:18:41;6.30;99.90
5899;DHT22;2975;50.956;6.962;2023-11-22T01:21:06;6.40;99.90
5899;DHT22;2975;50.956;6.962;2023-11-22T01:23:34;6.40;99.90
5899;DHT22;2975;50.956;6.962;2023-11-22T01:26:00;6.40;99.90
5899;DHT22;2975;50.956;6.962;2023-11-22T01:28:29;6.40;99.90
5899;DHT22;2975;50.956;6.962;2023-11-22T01:30:55;6.40;99.90
5899;DHT22;2975;50.956;6.962;2023-11-22T01:33:24;6.40;99.90
5899;DHT22;2975;50.956;6.962;2023-11-22T01:35:49;6.30;99.90
5899;DHT22;2975;50.956;6.962;2023-11-22T01:38:17;6.40;99.90
5899;DHT22;2975;50.956;6.962;2023-11-22T01:40:46;6.40;99.90
5899;DHT22;2975;50.956;6.962;2023-11-22T01:43:18;6.40;99.90
5899;DHT22;2975;50.956;6.962;2023-11-22T01:45:44;6.30;99.90
5899;DHT22;2975;50.956;6.962;2023-11-22T01:48:11;6.30;99.90
5899;DHT22;2975;50.956;6.962;2023-11-22T01:50:39;6.40;99.90
5899;DHT22;2975;50.956;6.962;2023-11-22T01:53:08;6.40;99.90
5899;DHT22;2975;50.956;6.962;2023-11-22T01:55:35;6.40;99.90
5899;DHT22;2975;50.956;6.962;2023-11-22T01:58:01;6.40;99.90
5899;DHT22;2975;50.956;6.962;2023-11-22T02:00:40;6.20;99.90
5899;DHT22;2975;50.956;6.962;2023-11-22T02:03:07;6.20;99.90
5899;DHT22;2975;50.956;6.962;2023-11-22T02:05:33;6.30;99.90
5899;DHT22;2975;50.956;6.962;2023-11-22T02:07:59;6.20;99.90
5899;DHT22;2975;50.956;6.962;2023-11-22T02:10:24;6.20;99.90
5899;DHT22;2975;50.956;6.962;2023-11-22T02:12:50;6.30;99.90
5899;DHT22;2975;50.956;6.962;2023-11-22T02:15:16;6.30;99.90
5899;DHT22;2975;50.956;6.962;2023-11-22T02:17:41;6.30;99.90
5899;DHT22;2975;50.956;6.962;2023-11-22T02:20:07;6.30;99.90
5899;DHT22;2975;50.956;6.962;2023-11-22T02:22:44;6.30;99.90
5899;DHT22;2975;50.956;6.962;2023-11-22T02:25:09;6.30;99.90
5899;DHT22;2975;50.956;6.962;2023-11-22T02:27:35;6.30;99.90
5899;DHT22;2975;50.956;6.962;2023-11-22T02:30:03;6.40;99.90
5899;DHT22;2975;50.956;6.962;2023-11-22T02:32:31;6.30;99.90
5899;DHT22;2975;50.956;6.962;2023-11-22T02:34:56;6.40;99.90
5899;DHT22;2975;50.956;6.962;2023-11-22T02:37:22;6.50;99.90
5899;DHT22;2975;50.956;6.962;2023-11-22T02:40:39;6.50;99.90
5899;DHT22;2975;50.956;6.962;2023-11-22T02:42:40;6.50;99.90
5899;DHT22;2975;50.956;6.962;2023-11-22T02:45:06;6.40;99.90
5899;DHT22;2975;50.956;6.962;2023-11-22T02:47:32;6.40;99.90
5899;DHT22;2975;50.956;6.962;2023-11-22T02:50:00;6.40;99.90
5899;DHT22;2975;50.956;6.962;2023-11-22T02:52:26;6.40;99.90
5899;DHT22;2975;50.956;6.962;2023-11-22T02:54:53;6.40;99.90
5899;DHT22;2975;50.956;6.962;2023-11-22T02:57:19;6.30;99.90
5899;DHT22;2975;50.956;6.962;2023-11-22T02:59:44;6.40;99.90
5899;DHT22;2975;50.956;6.962;2023-11-22T03:02:10;6.40;99.90
5899;DHT22;2975;50.956;6.962;2023-11-22T03:04:37;6.40;99.90
5899;DHT22;2975;50.956;6.962;2023-11-22T03:07:03;6.30;99.90
5899;DHT22;2975;50.956;6.962;2023-11-22T03:09:31;6.20;99.90
5899;DHT22;2975;50.956;6.962;2023-11-22T03:11:57;6.20;99.90
5899;DHT22;2975;50.956;6.962;2023-11-22T03:14:23;6.30;99.90
5899;DHT22;2975;50.956;6.962;2023-11-22T03:16:49;6.20;99.90
5899;DHT22;2975;50.956;6.962;2023-11-22T03:19:15;6.10;99.90
5899;DHT22;2975;50.956;6.962;2023-11-22T03:21:41;6.10;99.90
5899;DHT22;2975;50.956;6.962;2023-11-22T03:24:09;6.00;99.90
5899;DHT22;2975;50.956;6.962;2023-11-22T03:26:36;5.90;99.90
5899;DHT22;2975;50.956;6.962;2023-11-22T03:29:01;6.10;99.90
5899;DHT22;2975;50.956;6.962;2023-11-22T03:31:28;6.20;99.90
5899;DHT22;2975;50.956;6.962;2023-11-22T03:33:54;6.20;99.90
5899;DHT22;2975;50.956;6.962;2023-11-22T03:36:20;6.10;99.90
5899;DHT22;2975;50.956;6.962;2023-11-22T03:38:47;6.20;99.90
5899;DHT22;2975;50.956;6.962;2023-11-22T03:41:13;6.10;99.90
5899;DHT22;2975;50.956;6.962;2023-11-22T03:43:40;6.00;99.90
5899;DHT22;2975;50.956;6.962;2023-11-22T03:46:05;5.90;99.90
5899;DHT22;2975;50.956;6.962;2023-11-22T03:48:31;5.80;99.90
5899;DHT22;2975;50.956;6.962;2023-11-22T03:50:57;5.80;99.90
5899;DHT22;2975;50.956;6.962;2023-11-22T03:53:22;5.70;99.90
5899;DHT22;2975;50.956;6.962;2023-11-22T03:55:52;5.50;99.90
5899;DHT22;2975;50.956;6.962;2023-11-22T03:58:18;5.40;99.90
5899;DHT22;2975;50.956;6.962;2023-11-22T04:00:43;5.30;99.90
5899;DHT22;2975;50.956;6.962;2023-11-22T04:03:09;5.30;99.90
5899;DHT22;2975;50.956;6.962;2023-11-22T04:05:34;5.20;99.90
5899;DHT22;2975;50.956;6.962;2023-11-22T04:08:01;5.20;99.90
5899;DHT22;2975;50.956;6.962;2023-11-22T04:10:26;5.20;99.90
5899;DHT22;2975;50.956;6.962;2023-11-22T04:12:52;5.10;99.90
5899;DHT22;2975;50.956;6.962;2023-11-22T04:15:18;5.10;99.90
5899;DHT22;2975;50.956;6.962;2023-11-22T04:17:43;4.90;99.90
5899;DHT22;2975;50.956;6.962;2023-11-22T04:20:09;4.90;99.90
5899;DHT22;2975;50.956;6.962;2023-11-22T04:22:40;4.80;99.90
5899;DHT22;2975;50.956;6.962;2023-11-22T04:25:06;4.90;99.90
5899;DHT22;2975;50.956;6.962;2023-11-22T04:27:34;4.80;99.90
5899;DHT22;2975;50.956;6.962;2023-11-22T04:29:59;4.70;99.90
5899;DHT22;2975;50.956;6.962;2023-11-22T04:32:25;4.60;99.90
5899;DHT22;2975;50.956;6.962;2023-11-22T04:34:51;4.50;99.90
5899;DHT22;2975;50.956;6.962;2023-11-22T04:37:17;4.40;99.90
5899;DHT22;2975;50.956;6.962;2023-11-22T04:39:42;4.50;99.90
5899;DHT22;2975;50.956;6.962;2023-11-22T04:42:08;4.40;99.90
5899;DHT22;2975;50.956;6.962;2023-11-22T04:44:33;4.40;99.90
5899;DHT22;2975;50.956;6.962;2023-11-22T04:46:59;4.40;99.90
5899;DHT22;2975;50.956;6.962;2023-11-22T04:49:26;4.40;99.90
5899;DHT22;2975;50.956;6.962;2023-11-22T04:51:51;4.30;99.90
5899;DHT22;2975;50.956;6.962;2023-11-22T04:54:17;4.30;99.90
5899;DHT22;2975;50.956;6.962;2023-11-22T04:56:43;4.20;99.90
5899;DHT22;2975;50.956;6.962;2023-11-22T04:59:08;4.20;99.90
5899;DHT22;2975;50.956;6.962;2023-11-22T05:01:34;4.10;99.90
5899;DHT22;2975;50.956;6.962;2023-11-22T05:04:00;4.10;99.90
5899;DHT22;2975;50.956;6.962;2023-11-22T05:06:26;4.20;99.90
5899;DHT22;2975;50.956;6.962;2023-11-22T05:08:52;4.00;99.90
5899;DHT22;2975;50.956;6.962;2023-11-22T05:11:19;4.00;99.90
5899;DHT22;2975;50.956;6.962;2023-11-22T05:13:44;4.00;99.90
5899;DHT22;2975;50.956;6.962;2023-11-22T05:16:10;3.80;99.90
5899;DHT22;2975;50.956;6.962;2023-11-22T05:18:36;3.90;99.90
5899;DHT22;2975;50.956;6.962;2023-11-22T05:21:04;3.90;99.90
5899;DHT22;2975;50.956;6.962;2023-11-22T05:23:30;3.90;99.90
5899;DHT22;2975;50.956;6.962;2023-11-22T05:25:59;3.90;99.90
5899;DHT22;2975;50.956;6.962;2023-11-22T05:28:29;3.90;99.90
5899;DHT22;2975;50.956;6.962;2023-11-22T05:30:54;3.90;99.90
5899;DHT22;2975;50.956;6.962;2023-11-22T05:33:20;4.00;99.90
5899;DHT22;2975;50.956;6.962;2023-11-22T05:35:45;3.90;99.90
5899;DHT22;2975;50.956;6.962;2023-11-22T05:38:11;4.00;99.90
5899;DHT22;2975;50.956;6.962;2023-11-22T05:40:37;3.90;99.90
5899;DHT22;2975;50.956;6.962;2023-11-22T05:43:04;3.80;99.90
5899;DHT22;2975;50.956;6.962;2023-11-22T05:45:30;3.70;99.90
5899;DHT22;2975;50.956;6.962;2023-11-22T05:47:55;3.90;99.90
5899;DHT22;2975;50.956;6.962;2023-11-22T05:50:21;3.80;99.90
5899;DHT22;2975;50.956;6.962;2023-11-22T05:52:47;3.60;99.90
5899;DHT22;2975;50.956;6.962;2023-11-22T05:55:12;3.80;99.90
5899;DHT22;2975;50.956;6.962;2023-11-22T05:57:40;3.90;99.90
5899;DHT22;2975;50.956;6.962;2023-11-22T06:00:07;3.90;99.90
5899;DHT22;2975;50.956;6.962;2023-11-22T06:02:33;4.00;99.90
5899;DHT22;2975;50.956;6.962;2023-11-22T06:04:58;4.00;99.90
5899;DHT22;2975;50.956;6.962;2023-11-22T06:07:25;3.90;99.90
5899;DHT22;2975;50.956;6.962;2023-11-22T06:09:51;3.80;99.90
5899;DHT22;2975;50.956;6.962;2023-11-22T06:12:17;3.70;99.90
5899;DHT22;2975;50.956;6.962;2023-11-22T06:14:42;3.70;99.90
5899;DHT22;2975;50.956;6.962;2023-11-22T06:17:08;3.60;99.90
5899;DHT22;2975;50.956;6.962;2023-11-22T06:19:33;3.60;99.90
5899;DHT22;2975;50.956;6.962;2023-11-22T06:21:59;3.60;99.90
5899;DHT22;2975;50.956;6.962;2023-11-22T06:24:27;3.60;99.90
5899;DHT22;2975;50.956;6.962;2023-11-22T06:26:52;3.50;99.90
5899;DHT22;2975;50.956;6.962;2023-11-22T06:29:18;3.40;99.90
5899;DHT22;2975;50.956;6.962;2023-11-22T06:31:43;3.30;99.90
5899;DHT22;2975;50.956;6.962;2023-11-22T06:34:09;3.50;99.90
5899;DHT22;2975;50.956;6.962;2023-11-22T06:36:35;3.20;99.90
5899;DHT22;2975;50.956;6.962;2023-11-22T06:39:00;3.10;99.90
5899;DHT22;2975;50.956;6.962;2023-11-22T06:41:26;3.10;99.90
5899;DHT22;2975;50.956;6.962;2023-11-22T06:43:52;3.20;99.90
5899;DHT22;2975;50.956;6.962;2023-11-22T06:46:18;3.20;99.90
5899;DHT22;2975;50.956;6.962;2023-11-22T06:48:44;3.00;99.90
5899;DHT22;2975;50.956;6.962;2023-11-22T06:51:09;3.10;99.90
5899;DHT22;2975;50.956;6.962;2023-11-22T06:53:35;3.20;99.90
5899;DHT22;2975;50.956;6.962;2023-11-22T06:56:01;3.30;99.90
5899;DHT22;2975;50.956;6.962;2023-11-22T06:58:27;3.10;99.90
5899;DHT22;2975;50.956;6.962;2023-11-22T07:00:52;3.20;99.90
5899;DHT22;2975;50.956;6.962;2023-11-22T07:03:18;3.20;99.90
5899;DHT22;2975;50.956;6.962;2023-11-22T07:05:44;3.10;99.90
5899;DHT22;2975;50.956;6.962;2023-11-22T07:08:09;3.00;99.90
5899;DHT22;2975;50.956;6.962;2023-11-22T07:10:36;3.00;99.90
5899;DHT22;2975;50.956;6.962;2023-11-22T07:13:02;3.00;99.90
5899;DHT22;2975;50.956;6.962;2023-11-22T07:15:28;2.90;99.90
5899;DHT22;2975;50.956;6.962;2023-11-22T07:17:54;3.00;99.90
5899;DHT22;2975;50.956;6.962;2023-11-22T07:20:20;2.90;99.90
5899;DHT22;2975;50.956;6.962;2023-11-22T07:22:46;2.90;99.90
5899;DHT22;2975;50.956;6.962;2023-11-22T07:25:12;2.90;99.90
5899;DHT22;2975;50.956;6.962;2023-11-22T07:27:47;2.90;99.90
5899;DHT22;2975;50.956;6.962;2023-11-22T07:30:13;2.90;99.90
5899;DHT22;2975;50.956;6.962;2023-11-22T07:32:40;2.80;99.90
5899;DHT22;2975;50.956;6.962;2023-11-22T07:35:06;2.90;99.90
5899;DHT22;2975;50.956;6.962;2023-11-22T07:37:34;2.90;99.90
5899;DHT22;2975;50.956;6.962;2023-11-22T07:40:01;2.80;99.90
5899;DHT22;2975;50.956;6.962;2023-11-22T07:42:29;3.10;99.90
5899;DHT22;2975;50.956;6.962;2023-11-22T07:44:54;3.00;99.90
5899;DHT22;2975;50.956;6.962;2023-11-22T07:47:22;2.90;99.90
5899;DHT22;2975;50.956;6.962;2023-11-22T07:49:50;3.10;99.90
5899;DHT22;2975;50.956;6.962;2023-11-22T07:52:16;3.00;99.90
5899;DHT22;2975;50.956;6.962;2023-11-22T07:54:41;3.20;99.90
5899;DHT22;2975;50.956;6.962;2023-11-22T07:57:07;3.20;99.90
5899;DHT22;2975;50.956;6.962;2023-11-22T07:59:33;3.30;99.90
5899;DHT22;2975;50.956;6.962;2023-11-22T08:01:59;3.20;99.90
5899;DHT22;2975;50.956;6.962;2023-11-22T08:04:27;3.30;99.90
5899;DHT22;2975;50.956;6.962;2023-11-22T08:06:53;3.50;99.90
5899;DHT22;2975;50.956;6.962;2023-11-22T08:09:22;3.60;99.90
5899;DHT22;2975;50.956;6.962;2023-11-22T08:11:48;3.60;99.90
5899;DHT22;2975;50.956;6.962;2023-11-22T08:14:15;3.70;99.90
5899;DHT22;2975;50.956;6.962;2023-11-22T08:16:41;3.70;99.90
5899;DHT22;2975;50.956;6.962;2023-11-22T08:19:08;3.80;99.90
5899;DHT22;2975;50.956;6.962;2023-11-22T08:21:34;4.00;99.90
5899;DHT22;2975;50.956;6.962;2023-11-22T08:24:00;4.00;99.90
5899;DHT22;2975;50.956;6.962;2023-11-22T08:26:26;4.00;99.90
5899;DHT22;2975;50.956;6.962;2023-11-22T08:28:52;4.10;99.90
5899;DHT22;2975;50.956;6.962;2023-11-22T08:31:17;4.10;99.90
5899;DHT22;2975;50.956;6.962;2023-11-22T08:33:43;4.00;99.90
5899;DHT22;2975;50.956;6.962;2023-11-22T08:36:09;4.10;99.90
5899;DHT22;2975;50.956;6.962;2023-11-22T08:38:35;4.10;99.90
5899;DHT22;2975;50.956;6.962;2023-11-22T08:41:02;4.10;99.90
5899;DHT22;2975;50.956;6.962;2023-11-22T08:43:28;4.10;99.90
5899;DHT22;2975;50.956;6.962;2023-11-22T08:45:54;4.20;99.90
5899;DHT22;2975;50.956;6.962;2023-11-22T08:48:20;4.10;99.90
5899;DHT22;2975;50.956;6.962;2023-11-22T08:50:45;4.20;99.90
5899;DHT22;2975;50.956;6.962;2023-11-22T08:53:13;4.20;99.90
5899;DHT22;2975;50.956;6.962;2023-11-22T08:55:39;4.20;99.90
5899;DHT22;2975;50.956;6.962;2023-11-22T08:58:04;4.30;99.90
5899;DHT22;2975;50.956;6.962;2023-11-22T09:00:30;4.30;99.90
5899;DHT22;2975;50.956;6.962;2023-11-22T09:02:57;4.20;99.90
5899;DHT22;2975;50.956;6.962;2023-11-22T09:05:23;4.30;99.90
5899;DHT22;2975;50.956;6.962;2023-11-22T09:07:49;4.30;99.90
5899;DHT22;2975;50.956;6.962;2023-11-22T09:10:16;4.40;99.90
5899;DHT22;2975;50.956;6.962;2023-11-22T09:12:44;4.40;99.90
5899;DHT22;2975;50.956;6.962;2023-11-22T09:15:11;4.50;99.90
5899;DHT22;2975;50.956;6.962;2023-11-22T09:17:38;4.50;99.90
5899;DHT22;2975;50.956;6.962;2023-11-22T09:20:12;4.60;99.90
5899;DHT22;2975;50.956;6.962;2023-11-22T09:22:46;4.70;99.90
5899;DHT22;2975;50.956;6.962;2023-11-22T09:25:19;4.80;99.90
5899;DHT22;2975;50.956;6.962;2023-11-22T09:27:49;4.90;99.90
5899;DHT22;2975;50.956;6.962;2023-11-22T09:30:21;5.10;99.90
5899;DHT22;2975;50.956;6.962;2023-11-22T09:33:08;5.20;99.90
5899;DHT22;2975;50.956;6.962;2023-11-22T09:35:35;5.30;99.90
5899;DHT22;2975;50.956;6.962;2023-11-22T09:38:02;5.40;99.90
5899;DHT22;2975;50.956;6.962;2023-11-22T09:40:29;5.60;99.90
5899;DHT22;2975;50.956;6.962;2023-11-22T09:42:58;5.60;99.90
5899;DHT22;2975;50.956;6.962;2023-11-22T09:45:25;5.80;99.90
5899;DHT22;2975;50.956;6.962;2023-11-22T09:47:55;6.00;99.90
5899;DHT22;2975;50.956;6.962;2023-11-22T09:50:27;6.10;99.90
5899;DHT22;2975;50.956;6.962;2023-11-22T09:52:57;6.20;99.90
5899;DHT22;2975;50.956;6.962;2023-11-22T09:55:27;6.40;99.90
5899;DHT22;2975;50.956;6.962;2023-11-22T09:57:54;6.40;99.90
5899;DHT22;2975;50.956;6.962;2023-11-22T10:00:22;6.70;99.90
5899;DHT22;2975;50.956;6.962;2023-11-22T10:02:50;6.50;99.90
5899;DHT22;2975;50.956;6.962;2023-11-22T10:05:16;6.50;99.90
5899;DHT22;2975;50.956;6.962;2023-11-22T10:07:41;6.70;99.90
5899;DHT22;2975;50.956;6.962;2023-11-22T10:10:07;6.70;99.90
5899;DHT22;2975;50.956;6.962;2023-11-22T10:12:36;6.80;98.40
5899;DHT22;2975;50.956;6.962;2023-11-22T10:17:37;6.60;98.30
5899;DHT22;2975;50.956;6.962;2023-11-22T10:20:03;6.70;99.20
5899;DHT22;2975;50.956;6.962;2023-11-22T10:22:29;7.00;98.40
5899;DHT22;2975;50.956;6.962;2023-11-22T10:24:58;7.10;98.20
5899;DHT22;2975;50.956;6.962;2023-11-22T10:27:26;7.40;97.60
5899;DHT22;2975;50.956;6.962;2023-11-22T10:29:51;7.60;97.00
5899;DHT22;2975;50.956;6.962;2023-11-22T10:32:17;8.00;96.40
5899;DHT22;2975;50.956;6.962;2023-11-22T10:34:43;8.00;96.40
5899;DHT22;2975;50.956;6.962;2023-11-22T10:37:09;8.20;96.30
5899;DHT22;2975;50.956;6.962;2023-11-22T10:39:35;8.40;95.90
5899;DHT22;2975;50.956;6.962;2023-11-22T10:42:05;8.40;95.70
5899;DHT22;2975;50.956;6.962;2023-11-22T10:44:34;8.20;95.00
5899;DHT22;2975;50.956;6.962;2023-11-22T10:47:00;8.10;95.00
5899;DHT22;2975;50.956;6.962;2023-11-22T10:49:26;7.70;94.90
5899;DHT22;2975;50.956;6.962;2023-11-22T10:51:52;7.50;95.40
5899;DHT22;2975;50.956;6.962;2023-11-22T10:54:21;7.60;95.80
5899;DHT22;2975;50.956;6.962;2023-11-22T10:56:51;7.60;95.50
5899;DHT22;2975;50.956;6.962;2023-11-22T10:59:19;7.60;94.90
5899;DHT22;2975;50.956;6.962;2023-11-22T11:01:48;7.60;95.40
5899;DHT22;2975;50.956;6.962;2023-11-22T11:04:39;7.50;95.40
5899;DHT22;2975;50.956;6.962;2023-11-22T11:07:09;7.60;95.50
5899;DHT22;2975;50.956;6.962;2023-11-22T11:09:40;7.60;95.40
5899;DHT22;2975;50.956;6.962;2023-11-22T11:12:06;7.90;95.10
5899;DHT22;2975;50.956;6.962;2023-11-22T11:14:33;7.70;95.50
5899;DHT22;2975;50.956;6.962;2023-11-22T11:16:59;7.80;95.80
5899;DHT22;2975;50.956;6.962;2023-11-22T11:19:26;7.80;96.00
5899;DHT22;2975;50.956;6.962;2023-11-22T11:21:54;7.80;95.30
5899;DHT22;2975;50.956;6.962;2023-11-22T11:24:20;7.80;94.90
5899;DHT22;2975;50.956;6.962;2023-11-22T11:26:49;7.70;95.00
5899;DHT22;2975;50.956;6.962;2023-11-22T11:29:32;7.60;94.50
5899;DHT22;2975;50.956;6.962;2023-11-22T11:31:58;7.60;94.70
5899;DHT22;2975;50.956;6.962;2023-11-22T11:34:24;7.60;94.80
5899;DHT22;2975;50.956;6.962;2023-11-22T11:36:53;7.60;93.90
5899;DHT22;2975;50.956;6.962;2023-11-22T11:39:28;7.70;94.70
5899;DHT22;2975;50.956;6.962;2023-11-22T11:42:08;7.70;94.70
5899;DHT22;2975;50.956;6.962;2023-11-22T11:44:34;7.80;94.50
5899;DHT22;2975;50.956;6.962;2023-11-22T11:47:09;7.90;94.70
5899;DHT22;2975;50.956;6.962;2023-11-22T11:49:37;7.90;94.30
5899;DHT22;2975;50.956;6.962;2023-11-22T11:52:04;8.00;94.20
5899;DHT22;2975;50.956;6.962;2023-11-22T11:54:30;8.20;93.50
5899;DHT22;2975;50.956;6.962;2023-11-22T11:56:59;8.20;93.70
5899;DHT22;2975;50.956;6.962;2023-11-22T11:59:25;8.20;94.00
5899;DHT22;2975;50.956;6.962;2023-11-22T12:01:54;8.20;93.60
5899;DHT22;2975;50.956;6.962;2023-11-22T12:04:24;8.20;93.90
5899;DHT22;2975;50.956;6.962;2023-11-22T12:06:50;8.30;93.80
5899;DHT22;2975;50.956;6.962;2023-11-22T12:09:25;8.20;94.00
5899;DHT22;2975;50.956;6.962;2023-11-22T12:11:51;8.20;93.60
5899;DHT22;2975;50.956;6.962;2023-11-22T12:14:25;8.30;93.60
5899;DHT22;2975;50.956;6.962;2023-11-22T12:16:51;8.30;94.00
5899;DHT22;2975;50.956;6.962;2023-11-22T12:19:23;8.30;93.70
5899;DHT22;2975;50.956;6.962;2023-11-22T12:21:50;8.30;93.60
5899;DHT22;2975;50.956;6.962;2023-11-22T12:24:15;8.10;93.90
5899;DHT22;2975;50.956;6.962;2023-11-22T12:26:45;8.10;94.20
5899;DHT22;2975;50.956;6.962;2023-11-22T12:29:14;8.00;94.30
5899;DHT22;2975;50.956;6.962;2023-11-22T12:31:46;7.90;94.20
5899;DHT22;2975;50.956;6.962;2023-11-22T12:34:14;7.70;94.70
5899;DHT22;2975;50.956;6.962;2023-11-22T12:36:42;7.60;95.10
5899;DHT22;2975;50.956;6.962;2023-11-22T12:39:11;7.40;95.70
5899;DHT22;2975;50.956;6.962;2023-11-22T12:42:00;7.50;96.10
5899;DHT22;2975;50.956;6.962;2023-11-22T12:44:26;7.60;95.90
5899;DHT22;2975;50.956;6.962;2023-11-22T12:46:54;7.50;95.80
5899;DHT22;2975;50.956;6.962;2023-11-22T12:49:25;7.30;96.10
5899;DHT22;2975;50.956;6.962;2023-11-22T12:51:57;7.30;96.00
5899;DHT22;2975;50.956;6.962;2023-11-22T12:54:23;7.30;95.30
5899;DHT22;2975;50.956;6.962;2023-11-22T12:56:52;7.30;95.60
5899;DHT22;2975;50.956;6.962;2023-11-22T12:59:25;7.40;94.90
5899;DHT22;2975;50.956;6.962;2023-11-22T13:01:53;7.40;94.70
5899;DHT22;2975;50.956;6.962;2023-11-22T13:04:20;7.40;94.20
5899;DHT22;2975;50.956;6.962;2023-11-22T13:06:45;7.40;94.30
5899;DHT22;2975;50.956;6.962;2023-11-22T13:09:11;7.50;94.10
5899;DHT22;2975;50.956;6.962;2023-11-22T13:11:41;7.40;94.50
5899;DHT22;2975;50.956;6.962;2023-11-22T13:14:08;7.30;94.90
5899;DHT22;2975;50.956;6.962;2023-11-22T13:16:33;7.20;95.30
5899;DHT22;2975;50.956;6.962;2023-11-22T13:19:00;7.30;95.30
5899;DHT22;2975;50.956;6.962;2023-11-22T13:21:25;7.30;94.90
5899;DHT22;2975;50.956;6.962;2023-11-22T13:23:52;7.50;95.00
5899;DHT22;2975;50.956;6.962;2023-11-22T13:26:17;7.40;94.70
5899;DHT22;2975;50.956;6.962;2023-11-22T13:28:43;7.30;94.90
5899;DHT22;2975;50.956;6.962;2023-11-22T13:31:09;7.30;95.00
5899;DHT22;2975;50.956;6.962;2023-11-22T13:33:37;7.20;95.00
5899;DHT22;2975;50.956;6.962;2023-11-22T13:36:04;7.20;94.80
5899;DHT22;2975;50.956;6.962;2023-11-22T13:38:30;7.10;95.20
5899;DHT22;2975;50.956;6.962;2023-11-22T13:40:55;7.10;95.60
5899;DHT22;2975;50.956;6.962;2023-11-22T13:43:21;7.00;95.80
5899;DHT22;2975;50.956;6.962;2023-11-22T13:45:47;6.90;95.80
5899;DHT22;2975;50.956;6.962;2023-11-22T13:48:12;6.90;96.60
5899;DHT22;2975;50.956;6.962;2023-11-22T13:50:38;7.00;97.10
5899;DHT22;2975;50.956;6.962;2023-11-22T13:53:04;7.10;99.00
5899;DHT22;2975;50.956;6.962;2023-11-22T13:55:30;7.20;98.90
5899;DHT22;2975;50.956;6.962;2023-11-22T13:57:59;7.30;98.80
5899;DHT22;2975;50.956;6.962;2023-11-22T14:00:26;7.50;98.70
5899;DHT22;2975;50.956;6.962;2023-11-22T14:02:55;7.60;99.30
5899;DHT22;2975;50.956;6.962;2023-11-22T14:05:25;7.60;98.70
5899;DHT22;2975;50.956;6.962;2023-11-22T14:07:52;7.70;98.80
5899;DHT22;2975;50.956;6.962;2023-11-22T14:10:18;7.60;98.50
5899;DHT22;2975;50.956;6.962;2023-11-22T14:12:45;7.60;98.70
5899;DHT22;2975;50.956;6.962;2023-11-22T14:15:12;7.60;98.70
5899;DHT22;2975;50.956;6.962;2023-11-22T14:17:38;7.50;98.60
5899;DHT22;2975;50.956;6.962;2023-11-22T14:20:09;7.50;98.90
5899;DHT22;2975;50.956;6.962;2023-11-22T14:22:36;7.40;98.50
5899;DHT22;2975;50.956;6.962;2023-11-22T14:25:02;7.40;99.00
5899;DHT22;2975;50.956;6.962;2023-11-22T14:27:28;7.30;98.00
5899;DHT22;2975;50.956;6.962;2023-11-22T14:29:56;7.20;97.80
5899;DHT22;2975;50.956;6.962;2023-11-22T14:32:22;7.20;97.20
5899;DHT22;2975;50.956;6.962;2023-11-22T14:34:48;7.10;97.50
5899;DHT22;2975;50.956;6.962;2023-11-22T14:37:14;7.10;97.50
5899;DHT22;2975;50.956;6.962;2023-11-22T14:39:41;7.10;97.80
5899;DHT22;2975;50.956;6.962;2023-11-22T14:42:06;7.10;97.50
5899;DHT22;2975;50.956;6.962;2023-11-22T14:44:34;7.10;97.50
5899;DHT22;2975;50.956;6.962;2023-11-22T14:47:00;7.00;97.80
5899;DHT22;2975;50.956;6.962;2023-11-22T14:49:31;7.00;99.30
5899;DHT22;2975;50.956;6.962;2023-11-22T14:51:57;7.00;99.90
5899;DHT22;2975;50.956;6.962;2023-11-22T14:54:22;6.90;99.90
5899;DHT22;2975;50.956;6.962;2023-11-22T14:56:48;6.90;99.90
5899;DHT22;2975;50.956;6.962;2023-11-22T14:59:15;6.80;99.90
5899;DHT22;2975;50.956;6.962;2023-11-22T15:01:42;6.80;99.90
5899;DHT22;2975;50.956;6.962;2023-11-22T15:04:09;6.80;99.90
5899;DHT22;2975;50.956;6.962;2023-11-22T15:06:36;6.80;99.90
5899;DHT22;2975;50.956;6.962;2023-11-22T15:09:02;6.70;99.90
5899;DHT22;2975;50.956;6.962;2023-11-22T15:11:37;6.70;99.90
5899;DHT22;2975;50.956;6.962;2023-11-22T15:14:04;6.60;99.90
5899;DHT22;2975;50.956;6.962;2023-11-22T15:16:29;6.60;99.90
5899;DHT22;2975;50.956;6.962;2023-11-22T15:18:56;6.60;99.90
5899;DHT22;2975;50.956;6.962;2023-11-22T15:21:22;6.60;99.90
5899;DHT22;2975;50.956;6.962;2023-11-22T15:23:48;6.50;99.90
5899;DHT22;2975;50.956;6.962;2023-11-22T15:26:13;6.50;99.90
5899;DHT22;2975;50.956;6.962;2023-11-22T15:28:39;6.50;99.90
5899;DHT22;2975;50.956;6.962;2023-11-22T15:31:05;6.50;99.90
5899;DHT22;2975;50.956;6.962;2023-11-22T15:33:31;6.50;99.90
5899;DHT22;2975;50.956;6.962;2023-11-22T15:35:57;6.50;99.90
5899;DHT22;2975;50.956;6.962;2023-11-22T15:38:22;6.50;99.90
5899;DHT22;2975;50.956;6.962;2023-11-22T15:40:49;6.50;99.90
5899;DHT22;2975;50.956;6.962;2023-11-22T15:43:15;6.60;99.90
5899;DHT22;2975;50.956;6.962;2023-11-22T15:45:41;6.60;99.90
5899;DHT22;2975;50.956;6.962;2023-11-22T15:48:08;6.60;99.90
5899;DHT22;2975;50.956;6.962;2023-11-22T15:50:34;6.60;99.90
5899;DHT22;2975;50.956;6.962;2023-11-22T15:52:59;6.60;99.90
5899;DHT22;2975;50.956;6.962;2023-11-22T15:55:27;6.70;99.90
5899;DHT22;2975;50.956;6.962;2023-11-22T15:57:53;6.60;99.90
5899;DHT22;2975;50.956;6.962;2023-11-22T16:00:19;6.70;99.90
5899;DHT22;2975;50.956;6.962;2023-11-22T16:02:47;6.70;99.90
5899;DHT22;2975;50.956;6.962;2023-11-22T16:05:13;6.70;99.90
5899;DHT22;2975;50.956;6.962;2023-11-22T16:07:39;6.70;99.90
5899;DHT22;2975;50.956;6.962;2023-11-22T16:10:05;6.70;99.90
5899;DHT22;2975;50.956;6.962;2023-11-22T16:12:34;6.70;99.90
5899;DHT22;2975;50.956;6.962;2023-11-22T16:14:59;6.70;99.90
5899;DHT22;2975;50.956;6.962;2023-11-22T16:17:26;6.60;99.90